createdAt,value
2022-07-28T00:01:34.493Z,17.60
2022-07-28T00:06:36.410Z,17.60
2022-07-28T00:11:54.597Z,17.60
2022-07-28T00:16:57.257Z,17.60
2022-07-28T00:21:59.195Z,17.60
2022-07-28T00:27:01.191Z,17.60
2022-07-28T00:32:03.227Z,17.60
2022-07-28T00:37:06.874Z,17.50
2022-07-28T00:42:09.164Z,17.60
2022-07-28T00:47:11.973Z,17.50
2022-07-28T00:52:17.452Z,17.50
2022-07-28T00:57:21.145Z,17.50
2022-07-28T01:02:23.292Z,17.50
2022-07-28T01:07:40.974Z,17.50
2022-07-28T01:12:51.351Z,17.50
2022-07-28T01:18:21.060Z,17.40
2022-07-28T01:23:32.231Z,17.40
2022-07-28T01:29:04.580Z,17.30
2022-07-28T01:34:09.816Z,17.30
2022-07-28T01:39:12.618Z,17.30
2022-07-28T01:44:18.999Z,17.30
2022-07-28T01:49:22.230Z,17.30
2022-07-28T01:54:28.406Z,17.20
2022-07-28T01:59:31.791Z,17.20
2022-07-28T02:04:36.819Z,17.10
2022-07-28T02:09:39.698Z,17.00
2022-07-28T02:14:41.672Z,17.00
2022-07-28T02:19:45.518Z,16.90
2022-07-28T02:24:48.408Z,16.90
2022-07-28T02:29:59.086Z,16.90
2022-07-28T02:35:09.408Z,16.80
2022-07-28T02:40:14.983Z,16.80
2022-07-28T02:45:18.925Z,16.80
2022-07-28T02:50:23.712Z,16.70
2022-07-28T02:55:26.022Z,16.70
2022-07-28T03:00:28.429Z,16.70
2022-07-28T03:05:30.750Z,16.60
2022-07-28T03:10:34.267Z,16.60
2022-07-28T03:15:37.431Z,16.50
2022-07-28T03:20:39.309Z,16.60
2022-07-28T03:25:46.824Z,16.60
2022-07-28T03:30:54.838Z,16.50
2022-07-28T03:35:58.617Z,16.50
2022-07-28T03:41:01.846Z,16.50
2022-07-28T03:46:04.704Z,16.40
2022-07-28T03:51:07.898Z,16.40
2022-07-28T03:56:09.780Z,16.40
2022-07-28T04:01:11.717Z,16.40
2022-07-28T04:06:13.939Z,16.50
2022-07-28T04:11:15.801Z,16.50
2022-07-28T04:16:17.737Z,16.60
2022-07-28T04:21:19.656Z,16.60
2022-07-28T04:26:21.503Z,16.60
2022-07-28T04:31:23.402Z,16.70
2022-07-28T04:36:25.931Z,16.80
2022-07-28T04:41:27.877Z,16.90
2022-07-28T04:46:30.395Z,17.00
2022-07-28T04:51:32.472Z,17.10
2022-07-28T04:56:34.496Z,17.20
2022-07-28T05:01:39.130Z,17.30
2022-07-28T05:06:41.134Z,17.40
2022-07-28T05:11:43.316Z,17.60
2022-07-28T05:16:45.252Z,17.90
2022-07-28T05:21:47.861Z,18.20
2022-07-28T05:26:49.777Z,18.50
2022-07-28T05:31:51.711Z,18.80
2022-07-28T05:36:53.648Z,19.20
2022-07-28T05:41:55.540Z,19.40
2022-07-28T05:46:57.493Z,19.60
2022-07-28T05:51:59.582Z,19.70
2022-07-28T05:57:01.449Z,19.90
2022-07-28T06:02:04.379Z,20.20
2022-07-28T06:07:06.377Z,20.50
2022-07-28T06:12:08.521Z,20.70
2022-07-28T06:17:10.531Z,21.10
2022-07-28T06:22:12.592Z,21.50
2022-07-28T06:27:14.958Z,21.80
2022-07-28T06:32:17.153Z,22.10
2022-07-28T06:37:19.054Z,22.40
2022-07-28T06:42:21.006Z,22.70
2022-07-28T06:47:23.181Z,22.90
2022-07-28T06:52:25.362Z,23.10
2022-07-28T06:57:33.689Z,23.20
2022-07-28T07:02:39.927Z,23.50
2022-07-28T07:07:43.616Z,23.80
2022-07-28T07:12:45.869Z,24.40
2022-07-28T07:17:47.770Z,24.70
2022-07-28T07:22:49.750Z,24.90
2022-07-28T07:27:56.979Z,25.30
2022-07-28T07:32:58.839Z,25.60
2022-07-28T07:38:00.865Z,26.00
2022-07-28T07:43:02.776Z,26.20
2022-07-28T07:48:04.930Z,26.30
2022-07-28T07:53:07.035Z,26.60
2022-07-28T07:58:08.893Z,26.80
2022-07-28T08:03:11.400Z,26.60
2022-07-28T08:08:16.019Z,26.80
2022-07-28T08:13:20.409Z,26.90
2022-07-28T08:18:22.353Z,26.80
2022-07-28T08:23:26.260Z,26.60
2022-07-28T08:28:28.369Z,27.00
2022-07-28T08:33:30.316Z,27.70
2022-07-28T08:38:32.403Z,27.90
2022-07-28T08:43:36.886Z,27.40
2022-07-28T08:48:39.359Z,27.20
2022-07-28T08:53:43.093Z,27.50
2022-07-28T08:58:44.983Z,27.40
2022-07-28T09:03:46.901Z,27.90
2022-07-28T09:08:48.807Z,28.50
2022-07-28T09:13:53.994Z,28.80
2022-07-28T09:18:56.144Z,29.20
2022-07-28T09:23:58.396Z,29.50
2022-07-28T09:29:02.363Z,29.70
2022-07-28T09:34:05.609Z,29.90
2022-07-28T09:39:08.104Z,29.90
2022-07-28T09:44:18.516Z,30.20
2022-07-28T09:49:24.044Z,30.60
2022-07-28T09:54:31.587Z,30.80
2022-07-28T09:59:41.851Z,30.80
2022-07-28T10:04:51.824Z,31.10
2022-07-28T10:10:09.360Z,31.20
2022-07-28T10:15:33.602Z,31.40
2022-07-28T10:20:37.177Z,31.40
2022-07-28T10:25:40.444Z,31.40
2022-07-28T10:30:42.850Z,31.60
2022-07-28T10:35:55.063Z,31.20
2022-07-28T10:40:59.515Z,31.20
2022-07-28T10:46:06.008Z,31.20
2022-07-28T10:51:08.581Z,31.60
2022-07-28T10:56:16.114Z,31.90
2022-07-28T11:01:50.619Z,32.00
2022-07-28T11:07:09.902Z,32.30
2022-07-28T11:12:15.318Z,32.20
2022-07-28T11:17:19.891Z,32.40
2022-07-28T11:22:32.013Z,32.50
2022-07-28T11:27:41.035Z,32.60
2022-07-28T11:32:54.977Z,32.70
2022-07-28T11:38:02.844Z,32.90
2022-07-28T11:43:30.690Z,32.90
2022-07-28T11:48:41.103Z,32.70
2022-07-28T11:53:50.853Z,32.90
2022-07-28T11:59:00.599Z,32.70
2022-07-28T12:04:11.958Z,32.60
2022-07-28T12:09:20.500Z,32.20
2022-07-28T12:14:30.028Z,32.20
2022-07-28T12:19:33.062Z,32.50
2022-07-28T12:24:45.511Z,32.60
2022-07-28T12:30:02.038Z,32.40
2022-07-28T12:35:04.451Z,32.90
2022-07-28T12:40:08.970Z,33.10
2022-07-28T12:45:12.495Z,32.90
2022-07-28T12:50:19.852Z,32.60
2022-07-28T12:55:22.301Z,32.10
2022-07-28T13:00:26.684Z,32.10
2022-07-28T13:05:32.907Z,32.40
2022-07-28T13:10:34.849Z,32.60
2022-07-28T13:15:38.738Z,32.70
2022-07-28T13:20:48.602Z,32.50
2022-07-28T13:25:52.433Z,32.20
2022-07-28T13:30:54.713Z,32.10
2022-07-28T13:35:56.606Z,32.20
2022-07-28T13:40:58.530Z,32.10
2022-07-28T13:46:00.445Z,31.80
2022-07-28T13:51:02.388Z,31.50
2022-07-28T13:56:05.523Z,31.40
2022-07-28T14:01:07.789Z,31.40
2022-07-28T14:06:10.498Z,31.50
2022-07-28T14:11:12.380Z,31.50
2022-07-28T14:16:15.884Z,31.50
2022-07-28T14:21:17.812Z,31.80
2022-07-28T14:26:35.458Z,31.80
2022-07-28T14:31:38.053Z,31.60
2022-07-28T14:36:39.978Z,31.60
2022-07-28T14:48:35.146Z,31.20
2022-07-28T14:53:40.068Z,31.20
2022-07-28T14:58:45.401Z,30.90
2022-07-28T15:03:47.341Z,30.80
2022-07-28T15:08:49.213Z,30.80
2022-07-28T15:13:51.070Z,30.90
2022-07-28T15:18:53.343Z,30.90
2022-07-28T15:23:55.266Z,30.90
2022-07-28T15:28:57.159Z,30.70
2022-07-28T15:33:59.438Z,30.30
2022-07-28T15:39:02.745Z,30.10
2022-07-28T15:44:10.293Z,29.90
2022-07-28T15:49:12.556Z,29.70
2022-07-28T15:54:14.818Z,29.60
2022-07-28T15:59:16.912Z,29.50
2022-07-28T16:04:19.320Z,29.40
2022-07-28T16:09:21.963Z,29.30
2022-07-28T16:14:23.837Z,29.20
2022-07-28T16:19:48.010Z,29.10
2022-07-28T16:24:48.644Z,29.00
2022-07-28T16:29:50.693Z,28.90
2022-07-28T16:34:53.952Z,28.80
2022-07-28T16:39:55.829Z,28.70
2022-07-28T16:44:57.815Z,28.60
2022-07-28T16:49:59.711Z,28.50
2022-07-28T16:55:01.643Z,28.40
2022-07-28T17:00:04.742Z,28.30
2022-07-28T17:05:08.714Z,28.20
2022-07-28T17:10:12.594Z,28.20
2022-07-28T17:15:19.961Z,28.00
2022-07-28T17:20:25.501Z,28.00
2022-07-28T17:30:49.389Z,27.70
2022-07-28T17:35:57.569Z,27.50
2022-07-28T17:41:03.691Z,27.40
2022-07-28T17:46:08.346Z,27.30
2022-07-28T17:51:12.338Z,27.10
2022-07-28T17:56:14.301Z,27.00
2022-07-28T18:01:16.278Z,26.80
2022-07-28T18:06:18.542Z,26.50
2022-07-28T18:11:21.773Z,26.30
2022-07-28T18:16:23.698Z,26.30
2022-07-28T18:21:26.757Z,26.10
2022-07-28T18:26:28.769Z,25.90
2022-07-28T18:31:30.957Z,25.80
2022-07-28T18:36:33.059Z,25.70
2022-07-28T18:41:46.640Z,25.50
2022-07-28T18:46:49.548Z,25.40
2022-07-28T18:51:52.947Z,25.20
2022-07-28T18:56:55.542Z,25.00
2022-07-28T19:01:58.008Z,24.90
2022-07-28T19:07:00.090Z,24.70
2022-07-28T19:12:02.063Z,24.60
2022-07-28T19:17:05.634Z,24.40
2022-07-28T19:22:09.463Z,24.30
2022-07-28T19:27:11.721Z,24.20
2022-07-28T19:32:13.658Z,24.20
2022-07-28T19:37:16.830Z,24.10
2022-07-28T19:42:19.279Z,24.00
2022-07-28T19:47:21.431Z,23.90
2022-07-28T19:52:24.034Z,23.90
2022-07-28T19:57:26.530Z,23.80
2022-07-28T20:02:29.201Z,23.70
2022-07-28T20:07:31.988Z,23.70
2022-07-28T20:12:36.606Z,23.60
2022-07-28T20:17:39.966Z,23.50
2022-07-28T20:22:42.179Z,23.50
2022-07-28T20:27:44.138Z,23.40
2022-07-28T20:32:46.691Z,23.30
2022-07-28T20:37:48.786Z,23.30
2022-07-28T20:42:53.315Z,23.20
2022-07-28T20:47:55.432Z,23.20
2022-07-28T20:52:57.397Z,23.20
2022-07-28T20:57:59.278Z,23.20
2022-07-28T21:03:02.421Z,23.20
2022-07-28T21:08:09.108Z,23.20
2022-07-28T21:13:11.308Z,23.10
2022-07-28T21:18:13.310Z,23.00
2022-07-28T21:23:15.375Z,22.90
2022-07-28T21:28:35.824Z,22.80
2022-07-28T21:33:38.342Z,22.80
2022-07-28T21:38:40.315Z,22.60
2022-07-28T21:43:42.222Z,22.50
2022-07-28T21:48:44.146Z,22.50
2022-07-28T21:53:47.230Z,22.40
2022-07-28T21:58:49.222Z,22.30
2022-07-28T22:03:51.317Z,22.30
2022-07-28T22:08:56.040Z,22.30
2022-07-28T22:13:57.979Z,22.20
2022-07-28T22:18:59.859Z,22.10
2022-07-28T22:24:01.743Z,22.10
2022-07-28T22:29:03.713Z,22.00
2022-07-28T22:34:05.729Z,22.00
2022-07-28T22:39:07.640Z,22.00
2022-07-28T22:44:09.523Z,21.90
2022-07-28T22:49:11.538Z,21.80
2022-07-28T22:54:13.788Z,21.70
2022-07-28T22:59:17.877Z,21.70
2022-07-28T23:04:20.134Z,21.60
2022-07-28T23:09:27.537Z,21.50
2022-07-28T23:14:29.410Z,21.50
2022-07-28T23:19:31.335Z,21.50
2022-07-28T23:24:33.245Z,21.40
2022-07-28T23:29:35.187Z,21.40
2022-07-28T23:34:37.133Z,21.30
2022-07-28T23:39:39.095Z,21.20
2022-07-28T23:44:40.977Z,21.10
2022-07-28T23:49:43.299Z,21.00
2022-07-28T23:54:45.197Z,20.90
2022-07-28T23:59:47.091Z,20.80
